Terminal Aerodrome Forecast
Issued by NWS

Home | Current Version | Previous Version | Text Only | Print | Product List | Glossary On
Versions: 1 2 3 4 5 6 7 8 9 10 11 12 13
000
FTPA31 PHFO 161737
TAFHKO
TAF
PHKO 161737Z 1618/1718 05006KT P6SM FEW020
     FM162000 24010KT P6SM SCT060
     FM170100 20008KT P6SM BKN060
     FM170700 08007KT P6SM SCT030=

USA.gov is the U.S. government's official web portal to all federal, state and local government web resources and services.